Tiff City, MO (64868)

09:03:CST den 13. februar 2016 (GMT -0600)
Grove Municipal | | Change Station
CLOSE
Current Station
Flyplass
Location: Grove,
Høyde over havet: 833 ft
Nearby Weather Stations

H.o.h 833 ft 36.60 °N, 94.74 °W | Updated 8 minutes ago

For det meste skyet
For det meste skyet
32 °F
Feels Like 24 °F
N
9
Vind Variabel Vind from ØNØ

I dag
High -- | Low -- °F
--% Chance of Precip.
I går
High -- | Low -- °F
Precip. -- tommer
Lufttrykk 30.54 tommer
Sikt 10.0 eng. mil
Skyet Klart
Nedkjølingseffekt 24 °F
Duggpunkt 5 °F
Fuktighet 32%
Regn 0.00 tommer
Snødybde Not available.
7:09 AM 5:56 PM
Økende sigd, 31% visible
METAR KGMJ 131455Z AUTO 07008KT 10SM CLR 00/M15 A3054 RMK AO2
Lufttrykk 30.54 tommer
Sikt 10.0 eng. mil
Skyet Klart
Nedkjølingseffekt 24 °F
Duggpunkt 5 °F
Fuktighet 32%
Regn 0.00 tommer
Snødybde Not available.
7:09 AM 5:56 PM
Økende sigd, 31% visible
METAR KGMJ 131455Z AUTO 07008KT 10SM CLR 00/M15 A3054 RMK AO2

10-Day Weather Forecast

Almanac

Astronomi

Feb. 13, 2016 Oppgang Nedgang
Virkelig tid
Tussmørke
Nautisk skumring
Astronomisk skumring
Månen
Lengde av synlig lys
Dagens lengde
Tomorrow will be .
, % of the Moon is Illuminated

Dagens maks og min

State Highs State Lows

Community

WunderPhotos

Upload Photos

1,892,572 photos uploaded!

WunderBlog® & News

Nearby

Luftkvalitet

  Luftkvalitet AQ Indeks Forurensing
Not available.

Snødybde

Stasjon Depth Høyde over havet

Earthquake Activity

By Distance Mag. Time & Date
Minimum magnitude displayed is 2.5.

Coastal Water Temperatures

Sted Temperatur

Stations

Nearby Weather Stations

Stasjonens lokasjon Temp. Nedkjølingseffekt Duggpunkt Fuktighet Vind Precip. H.o.h Oppdatert Type
                   

Watches & Warnings

There are currently no watches in effect.